sensor_id;sensor_type;location;lat;lon;timestamp;temperature;humidity
29431;DHT22;16404;49.902;10.074;2023-04-23T00:01:40;18.80;53.20
29431;DHT22;16404;49.902;10.074;2023-04-23T00:04:25;18.80;53.50
29431;DHT22;16404;49.902;10.074;2023-04-23T00:07:11;18.90;53.10
29431;DHT22;16404;49.902;10.074;2023-04-23T00:09:57;18.90;52.70
29431;DHT22;16404;49.902;10.074;2023-04-23T00:12:43;18.90;53.00
29431;DHT22;16404;49.902;10.074;2023-04-23T00:15:27;18.80;53.00
29431;DHT22;16404;49.902;10.074;2023-04-23T00:18:12;18.80;52.40
29431;DHT22;16404;49.902;10.074;2023-04-23T00:20:56;18.80;52.90
29431;DHT22;16404;49.902;10.074;2023-04-23T00:23:41;18.70;53.30
29431;DHT22;16404;49.902;10.074;2023-04-23T00:26:26;18.80;53.50
29431;DHT22;16404;49.902;10.074;2023-04-23T00:29:10;18.70;53.40
29431;DHT22;16404;49.902;10.074;2023-04-23T00:31:55;18.70;53.40
29431;DHT22;16404;49.902;10.074;2023-04-23T00:34:40;18.80;53.20
29431;DHT22;16404;49.902;10.074;2023-04-23T00:37:24;18.80;53.30
29431;DHT22;16404;49.902;10.074;2023-04-23T00:40:09;18.80;53.50
29431;DHT22;16404;49.902;10.074;2023-04-23T00:42:55;18.70;52.70
29431;DHT22;16404;49.902;10.074;2023-04-23T00:45:41;18.60;52.40
29431;DHT22;16404;49.902;10.074;2023-04-23T00:48:25;18.60;52.60
29431;DHT22;16404;49.902;10.074;2023-04-23T00:51:10;18.50;52.80
29431;DHT22;16404;49.902;10.074;2023-04-23T00:53:55;18.50;52.60
29431;DHT22;16404;49.902;10.074;2023-04-23T00:56:40;18.50;52.90
29431;DHT22;16404;49.902;10.074;2023-04-23T00:59:25;18.50;53.60
29431;DHT22;16404;49.902;10.074;2023-04-23T01:02:11;18.40;54.10
29431;DHT22;16404;49.902;10.074;2023-04-23T01:04:57;18.40;54.60
29431;DHT22;16404;49.902;10.074;2023-04-23T01:07:43;18.40;54.50
29431;DHT22;16404;49.902;10.074;2023-04-23T01:10:27;18.40;54.50
29431;DHT22;16404;49.902;10.074;2023-04-23T01:13:12;18.40;54.50
29431;DHT22;16404;49.902;10.074;2023-04-23T01:15:57;18.40;54.50
29431;DHT22;16404;49.902;10.074;2023-04-23T01:18:41;18.40;54.50
29431;DHT22;16404;49.902;10.074;2023-04-23T01:21:28;18.40;54.60
29431;DHT22;16404;49.902;10.074;2023-04-23T01:24:12;18.40;54.50
29431;DHT22;16404;49.902;10.074;2023-04-23T01:26:57;18.30;54.90
29431;DHT22;16404;49.902;10.074;2023-04-23T01:29:42;18.30;55.20
29431;DHT22;16404;49.902;10.074;2023-04-23T01:32:27;18.20;55.20
29431;DHT22;16404;49.902;10.074;2023-04-23T01:35:11;18.20;55.20
29431;DHT22;16404;49.902;10.074;2023-04-23T01:37:56;18.10;55.30
29431;DHT22;16404;49.902;10.074;2023-04-23T01:40:43;18.00;55.50
29431;DHT22;16404;49.902;10.074;2023-04-23T01:43:27;18.00;55.60
29431;DHT22;16404;49.902;10.074;2023-04-23T01:46:12;17.90;56.00
29431;DHT22;16404;49.902;10.074;2023-04-23T01:48:56;18.00;56.10
29431;DHT22;16404;49.902;10.074;2023-04-23T01:51:42;17.90;56.30
29431;DHT22;16404;49.902;10.074;2023-04-23T01:54:26;17.90;56.40
29431;DHT22;16404;49.902;10.074;2023-04-23T01:57:11;17.80;56.90
29431;DHT22;16404;49.902;10.074;2023-04-23T02:00:07;17.60;57.50
29431;DHT22;16404;49.902;10.074;2023-04-23T02:02:56;17.60;57.90
29431;DHT22;16404;49.902;10.074;2023-04-23T02:05:40;17.60;57.90
29431;DHT22;16404;49.902;10.074;2023-04-23T02:08:26;17.60;58.10
29431;DHT22;16404;49.902;10.074;2023-04-23T02:11:11;17.60;58.50
29431;DHT22;16404;49.902;10.074;2023-04-23T02:13:55;17.50;58.80
29431;DHT22;16404;49.902;10.074;2023-04-23T02:16:40;17.50;59.20
29431;DHT22;16404;49.902;10.074;2023-04-23T02:19:24;17.40;59.50
29431;DHT22;16404;49.902;10.074;2023-04-23T02:22:09;17.40;59.90
29431;DHT22;16404;49.902;10.074;2023-04-23T02:24:54;17.30;60.20
29431;DHT22;16404;49.902;10.074;2023-04-23T02:27:39;17.20;60.60
29431;DHT22;16404;49.902;10.074;2023-04-23T02:30:23;17.10;61.10
29431;DHT22;16404;49.902;10.074;2023-04-23T02:33:08;17.00;61.50
29431;DHT22;16404;49.902;10.074;2023-04-23T02:35:53;16.90;62.10
29431;DHT22;16404;49.902;10.074;2023-04-23T02:38:37;16.80;62.50
29431;DHT22;16404;49.902;10.074;2023-04-23T02:41:25;16.70;63.10
29431;DHT22;16404;49.902;10.074;2023-04-23T02:44:10;16.60;63.40
29431;DHT22;16404;49.902;10.074;2023-04-23T02:46:54;16.60;63.60
29431;DHT22;16404;49.902;10.074;2023-04-23T02:49:39;16.70;63.80
29431;DHT22;16404;49.902;10.074;2023-04-23T02:52:24;16.70;63.90
29431;DHT22;16404;49.902;10.074;2023-04-23T02:55:09;16.70;64.10
29431;DHT22;16404;49.902;10.074;2023-04-23T02:57:54;16.70;64.20
29431;DHT22;16404;49.902;10.074;2023-04-23T03:00:39;16.80;64.20
29431;DHT22;16404;49.902;10.074;2023-04-23T03:03:24;16.80;64.30
29431;DHT22;16404;49.902;10.074;2023-04-23T03:06:10;16.70;64.20
29431;DHT22;16404;49.902;10.074;2023-04-23T03:08:55;16.50;64.80
29431;DHT22;16404;49.902;10.074;2023-04-23T03:11:40;16.50;65.20
29431;DHT22;16404;49.902;10.074;2023-04-23T03:14:26;16.40;65.60
29431;DHT22;16404;49.902;10.074;2023-04-23T03:17:10;16.30;66.00
29431;DHT22;16404;49.902;10.074;2023-04-23T03:19:55;16.30;66.10
29431;DHT22;16404;49.902;10.074;2023-04-23T03:22:40;16.30;66.20
29431;DHT22;16404;49.902;10.074;2023-04-23T03:25:25;16.30;66.30
29431;DHT22;16404;49.902;10.074;2023-04-23T03:28:09;16.40;66.30
29431;DHT22;16404;49.902;10.074;2023-04-23T03:30:54;16.40;66.30
29431;DHT22;16404;49.902;10.074;2023-04-23T03:33:39;16.40;66.30
29431;DHT22;16404;49.902;10.074;2023-04-23T03:36:24;16.40;66.50
29431;DHT22;16404;49.902;10.074;2023-04-23T03:39:09;16.50;66.50
29431;DHT22;16404;49.902;10.074;2023-04-23T03:42:08;16.60;65.70
29431;DHT22;16404;49.902;10.074;2023-04-23T03:44:54;16.60;65.30
29431;DHT22;16404;49.902;10.074;2023-04-23T03:47:39;16.60;65.60
29431;DHT22;16404;49.902;10.074;2023-04-23T03:50:23;16.60;65.80
29431;DHT22;16404;49.902;10.074;2023-04-23T03:53:21;16.60;65.30
29431;DHT22;16404;49.902;10.074;2023-04-23T03:56:26;16.50;65.40
29431;DHT22;16404;49.902;10.074;2023-04-23T03:59:23;16.50;65.80
29431;DHT22;16404;49.902;10.074;2023-04-23T04:02:11;16.40;66.10
29431;DHT22;16404;49.902;10.074;2023-04-23T04:04:55;16.40;66.30
29431;DHT22;16404;49.902;10.074;2023-04-23T04:07:41;16.40;66.40
29431;DHT22;16404;49.902;10.074;2023-04-23T04:10:26;16.40;66.30
29431;DHT22;16404;49.902;10.074;2023-04-23T04:13:11;16.30;66.40
29431;DHT22;16404;49.902;10.074;2023-04-23T04:15:55;16.20;66.60
29431;DHT22;16404;49.902;10.074;2023-04-23T04:18:40;16.10;67.00
29431;DHT22;16404;49.902;10.074;2023-04-23T04:21:25;16.00;67.30
29431;DHT22;16404;49.902;10.074;2023-04-23T04:24:09;16.00;67.50
29431;DHT22;16404;49.902;10.074;2023-04-23T04:26:54;16.00;68.30
29431;DHT22;16404;49.902;10.074;2023-04-23T04:29:39;16.00;67.70
29431;DHT22;16404;49.902;10.074;2023-04-23T04:32:27;16.10;67.80
29431;DHT22;16404;49.902;10.074;2023-04-23T04:35:11;16.10;67.90
29431;DHT22;16404;49.902;10.074;2023-04-23T04:37:57;16.20;67.80
29431;DHT22;16404;49.902;10.074;2023-04-23T04:40:41;16.10;67.90
29431;DHT22;16404;49.902;10.074;2023-04-23T04:43:26;16.10;68.00
29431;DHT22;16404;49.902;10.074;2023-04-23T04:46:10;16.10;67.90
29431;DHT22;16404;49.902;10.074;2023-04-23T04:48:55;16.10;68.10
29431;DHT22;16404;49.902;10.074;2023-04-23T04:51:40;16.10;68.10
29431;DHT22;16404;49.902;10.074;2023-04-23T04:54:25;16.20;68.00
29431;DHT22;16404;49.902;10.074;2023-04-23T04:57:09;16.20;67.50
29431;DHT22;16404;49.902;10.074;2023-04-23T04:59:54;16.20;67.40
29431;DHT22;16404;49.902;10.074;2023-04-23T05:02:38;16.20;67.60
29431;DHT22;16404;49.902;10.074;2023-04-23T05:05:24;16.20;67.70
29431;DHT22;16404;49.902;10.074;2023-04-23T05:08:09;16.20;67.70
29431;DHT22;16404;49.902;10.074;2023-04-23T05:10:54;16.30;67.50
29431;DHT22;16404;49.902;10.074;2023-04-23T05:13:39;16.40;67.00
29431;DHT22;16404;49.902;10.074;2023-04-23T05:16:23;16.40;66.80
29431;DHT22;16404;49.902;10.074;2023-04-23T05:19:08;16.40;66.90
29431;DHT22;16404;49.902;10.074;2023-04-23T05:21:52;16.40;66.90
29431;DHT22;16404;49.902;10.074;2023-04-23T05:24:37;16.40;66.90
29431;DHT22;16404;49.902;10.074;2023-04-23T05:27:22;16.40;66.70
29431;DHT22;16404;49.902;10.074;2023-04-23T05:30:08;16.40;66.70
29431;DHT22;16404;49.902;10.074;2023-04-23T05:32:53;16.40;66.80
29431;DHT22;16404;49.902;10.074;2023-04-23T05:35:37;16.40;66.50
29431;DHT22;16404;49.902;10.074;2023-04-23T05:38:22;16.50;66.50
29431;DHT22;16404;49.902;10.074;2023-04-23T05:41:07;16.70;66.40
29431;DHT22;16404;49.902;10.074;2023-04-23T05:43:51;16.70;65.90
29431;DHT22;16404;49.902;10.074;2023-04-23T05:46:36;16.80;65.80
29431;DHT22;16404;49.902;10.074;2023-04-23T05:49:22;16.80;65.70
29431;DHT22;16404;49.902;10.074;2023-04-23T05:52:06;16.80;65.60
29431;DHT22;16404;49.902;10.074;2023-04-23T05:54:51;16.80;65.70
29431;DHT22;16404;49.902;10.074;2023-04-23T05:57:36;16.80;65.70
29431;DHT22;16404;49.902;10.074;2023-04-23T06:00:21;16.70;65.90
29431;DHT22;16404;49.902;10.074;2023-04-23T06:03:05;16.70;66.10
29431;DHT22;16404;49.902;10.074;2023-04-23T06:05:50;16.70;66.10
29431;DHT22;16404;49.902;10.074;2023-04-23T06:08:34;16.80;66.00
29431;DHT22;16404;49.902;10.074;2023-04-23T06:11:19;16.80;65.80
29431;DHT22;16404;49.902;10.074;2023-04-23T06:14:04;16.70;65.80
29431;DHT22;16404;49.902;10.074;2023-04-23T06:16:48;16.80;65.70
29431;DHT22;16404;49.902;10.074;2023-04-23T06:19:33;16.80;65.60
29431;DHT22;16404;49.902;10.074;2023-04-23T06:22:18;16.80;65.70
29431;DHT22;16404;49.902;10.074;2023-04-23T06:25:03;16.80;65.60
29431;DHT22;16404;49.902;10.074;2023-04-23T06:27:47;16.90;65.40
29431;DHT22;16404;49.902;10.074;2023-04-23T06:30:37;16.90;65.50
29431;DHT22;16404;49.902;10.074;2023-04-23T06:33:22;16.90;65.80
29431;DHT22;16404;49.902;10.074;2023-04-23T06:36:06;17.00;66.20
29431;DHT22;16404;49.902;10.074;2023-04-23T06:38:54;17.10;66.20
29431;DHT22;16404;49.902;10.074;2023-04-23T06:41:38;17.20;65.50
29431;DHT22;16404;49.902;10.074;2023-04-23T06:44:34;17.40;65.10
29431;DHT22;16404;49.902;10.074;2023-04-23T06:47:20;17.70;64.60
29431;DHT22;16404;49.902;10.074;2023-04-23T06:50:05;17.80;63.90
29431;DHT22;16404;49.902;10.074;2023-04-23T06:52:50;18.00;63.60
29431;DHT22;16404;49.902;10.074;2023-04-23T06:55:36;18.20;63.20
29431;DHT22;16404;49.902;10.074;2023-04-23T06:58:20;18.50;62.10
29431;DHT22;16404;49.902;10.074;2023-04-23T07:01:06;18.60;61.10
29431;DHT22;16404;49.902;10.074;2023-04-23T07:03:52;18.70;60.70
29431;DHT22;16404;49.902;10.074;2023-04-23T07:06:37;18.80;60.00
29431;DHT22;16404;49.902;10.074;2023-04-23T07:09:22;18.90;59.30
29431;DHT22;16404;49.902;10.074;2023-04-23T07:12:06;19.10;58.90
29431;DHT22;16404;49.902;10.074;2023-04-23T07:14:51;19.00;58.40
29431;DHT22;16404;49.902;10.074;2023-04-23T07:17:37;19.00;58.20
29431;DHT22;16404;49.902;10.074;2023-04-23T07:20:21;18.90;57.70
29431;DHT22;16404;49.902;10.074;2023-04-23T07:23:06;18.90;57.50
29431;DHT22;16404;49.902;10.074;2023-04-23T07:25:51;18.80;57.20
29431;DHT22;16404;49.902;10.074;2023-04-23T07:28:35;18.90;57.10
29431;DHT22;16404;49.902;10.074;2023-04-23T07:31:20;18.90;57.00
29431;DHT22;16404;49.902;10.074;2023-04-23T07:34:05;18.80;56.60
29431;DHT22;16404;49.902;10.074;2023-04-23T07:36:50;18.90;57.00
29431;DHT22;16404;49.902;10.074;2023-04-23T07:39:35;19.00;56.90
29431;DHT22;16404;49.902;10.074;2023-04-23T07:42:19;19.20;56.90
29431;DHT22;16404;49.902;10.074;2023-04-23T07:45:03;19.30;56.80
29431;DHT22;16404;49.902;10.074;2023-04-23T07:47:48;19.40;56.70
29431;DHT22;16404;49.902;10.074;2023-04-23T07:50:33;19.40;56.60
29431;DHT22;16404;49.902;10.074;2023-04-23T07:53:17;19.50;56.70
29431;DHT22;16404;49.902;10.074;2023-04-23T07:56:01;19.50;56.50
29431;DHT22;16404;49.902;10.074;2023-04-23T07:58:45;19.70;56.40
29431;DHT22;16404;49.902;10.074;2023-04-23T08:01:31;19.90;56.20
29431;DHT22;16404;49.902;10.074;2023-04-23T08:04:15;20.00;55.70
29431;DHT22;16404;49.902;10.074;2023-04-23T08:06:59;20.10;55.30
29431;DHT22;16404;49.902;10.074;2023-04-23T08:09:43;20.40;55.20
29431;DHT22;16404;49.902;10.074;2023-04-23T08:12:27;20.70;54.90
29431;DHT22;16404;49.902;10.074;2023-04-23T08:15:13;21.00;54.30
29431;DHT22;16404;49.902;10.074;2023-04-23T08:18:02;21.40;53.90
29431;DHT22;16404;49.902;10.074;2023-04-23T08:20:47;21.60;53.50
29431;DHT22;16404;49.902;10.074;2023-04-23T08:23:32;21.70;52.90
29431;DHT22;16404;49.902;10.074;2023-04-23T08:26:16;22.00;52.80
29431;DHT22;16404;49.902;10.074;2023-04-23T08:29:01;22.20;52.40
29431;DHT22;16404;49.902;10.074;2023-04-23T08:31:45;22.60;52.20
29431;DHT22;16404;49.902;10.074;2023-04-23T08:34:30;22.70;52.00
29431;DHT22;16404;49.902;10.074;2023-04-23T08:37:14;22.70;51.80
29431;DHT22;16404;49.902;10.074;2023-04-23T08:39:59;22.80;51.90
29431;DHT22;16404;49.902;10.074;2023-04-23T08:45:31;22.90;51.50
29431;DHT22;16404;49.902;10.074;2023-04-23T08:48:17;23.00;51.30
29431;DHT22;16404;49.902;10.074;2023-04-23T08:51:02;22.80;51.10
29431;DHT22;16404;49.902;10.074;2023-04-23T08:53:49;22.80;51.20
29431;DHT22;16404;49.902;10.074;2023-04-23T08:56:35;22.80;51.10
29431;DHT22;16404;49.902;10.074;2023-04-23T08:59:20;22.90;50.90
29431;DHT22;16404;49.902;10.074;2023-04-23T09:02:05;23.00;50.70
29431;DHT22;16404;49.902;10.074;2023-04-23T09:04:53;23.30;50.40
29431;DHT22;16404;49.902;10.074;2023-04-23T09:07:37;23.40;50.10
29431;DHT22;16404;49.902;10.074;2023-04-23T09:10:22;23.30;49.60
29431;DHT22;16404;49.902;10.074;2023-04-23T09:13:06;23.10;49.80
29431;DHT22;16404;49.902;10.074;2023-04-23T09:15:50;23.10;49.90
29431;DHT22;16404;49.902;10.074;2023-04-23T09:18:35;23.10;50.00
29431;DHT22;16404;49.902;10.074;2023-04-23T09:21:20;23.30;49.70
29431;DHT22;16404;49.902;10.074;2023-04-23T09:24:04;23.50;49.00
29431;DHT22;16404;49.902;10.074;2023-04-23T09:26:49;23.60;48.60
29431;DHT22;16404;49.902;10.074;2023-04-23T09:29:34;23.60;48.10
29431;DHT22;16404;49.902;10.074;2023-04-23T09:32:20;23.90;48.10
29431;DHT22;16404;49.902;10.074;2023-04-23T09:35:14;24.20;47.60
29431;DHT22;16404;49.902;10.074;2023-04-23T09:37:59;24.60;47.20
29431;DHT22;16404;49.902;10.074;2023-04-23T09:40:49;24.90;46.80
29431;DHT22;16404;49.902;10.074;2023-04-23T09:43:33;25.20;46.60
29431;DHT22;16404;49.902;10.074;2023-04-23T09:46:18;25.40;46.60
29431;DHT22;16404;49.902;10.074;2023-04-23T09:49:02;25.40;46.40
29431;DHT22;16404;49.902;10.074;2023-04-23T09:51:47;25.50;46.50
29431;DHT22;16404;49.902;10.074;2023-04-23T09:54:32;25.30;46.60
29431;DHT22;16404;49.902;10.074;2023-04-23T09:57:16;25.10;46.90
29431;DHT22;16404;49.902;10.074;2023-04-23T10:00:06;24.90;47.00
29431;DHT22;16404;49.902;10.074;2023-04-23T10:02:55;24.60;46.70
29431;DHT22;16404;49.902;10.074;2023-04-23T10:05:42;24.30;46.90
29431;DHT22;16404;49.902;10.074;2023-04-23T10:08:27;24.40;47.00
29431;DHT22;16404;49.902;10.074;2023-04-23T10:11:12;24.60;46.80
29431;DHT22;16404;49.902;10.074;2023-04-23T10:13:56;24.70;46.40
29431;DHT22;16404;49.902;10.074;2023-04-23T10:16:41;24.90;45.90
29431;DHT22;16404;49.902;10.074;2023-04-23T10:19:27;25.00;45.70
29431;DHT22;16404;49.902;10.074;2023-04-23T10:22:12;25.20;45.50
29431;DHT22;16404;49.902;10.074;2023-04-23T10:24:57;25.30;45.30
29431;DHT22;16404;49.902;10.074;2023-04-23T10:27:43;25.40;45.00
29431;DHT22;16404;49.902;10.074;2023-04-23T10:30:31;25.40;45.00
29431;DHT22;16404;49.902;10.074;2023-04-23T10:33:15;25.30;45.10
29431;DHT22;16404;49.902;10.074;2023-04-23T10:36:00;25.30;45.10
29431;DHT22;16404;49.902;10.074;2023-04-23T10:38:44;25.30;45.10
29431;DHT22;16404;49.902;10.074;2023-04-23T10:41:33;25.30;45.00
29431;DHT22;16404;49.902;10.074;2023-04-23T10:44:18;25.20;44.70
29431;DHT22;16404;49.902;10.074;2023-04-23T10:47:04;25.10;44.50
29431;DHT22;16404;49.902;10.074;2023-04-23T10:49:49;25.00;44.30
29431;DHT22;16404;49.902;10.074;2023-04-23T10:52:34;24.90;44.30
29431;DHT22;16404;49.902;10.074;2023-04-23T10:55:21;24.80;44.10
29431;DHT22;16404;49.902;10.074;2023-04-23T10:58:06;24.80;44.10
29431;DHT22;16404;49.902;10.074;2023-04-23T11:00:51;24.80;43.80
29431;DHT22;16404;49.902;10.074;2023-04-23T11:03:37;24.90;43.90
29431;DHT22;16404;49.902;10.074;2023-04-23T11:09:29;25.10;43.50
29431;DHT22;16404;49.902;10.074;2023-04-23T11:14:58;25.30;43.30
29431;DHT22;16404;49.902;10.074;2023-04-23T11:20:30;25.30;43.00
29431;DHT22;16404;49.902;10.074;2023-04-23T11:23:37;25.30;43.00
29431;DHT22;16404;49.902;10.074;2023-04-23T11:26:20;25.30;42.80
29431;DHT22;16404;49.902;10.074;2023-04-23T11:29:05;25.20;42.60
29431;DHT22;16404;49.902;10.074;2023-04-23T11:31:51;25.20;42.40
29431;DHT22;16404;49.902;10.074;2023-04-23T11:34:36;25.30;42.30
29431;DHT22;16404;49.902;10.074;2023-04-23T11:37:23;25.40;42.40
29431;DHT22;16404;49.902;10.074;2023-04-23T11:40:08;25.40;42.40
29431;DHT22;16404;49.902;10.074;2023-04-23T11:42:53;25.40;42.40
29431;DHT22;16404;49.902;10.074;2023-04-23T11:45:37;25.50;42.50
29431;DHT22;16404;49.902;10.074;2023-04-23T11:48:22;25.50;42.40
29431;DHT22;16404;49.902;10.074;2023-04-23T11:51:06;25.60;42.40
29431;DHT22;16404;49.902;10.074;2023-04-23T11:53:51;25.60;42.20
29431;DHT22;16404;49.902;10.074;2023-04-23T11:56:35;25.50;42.00
29431;DHT22;16404;49.902;10.074;2023-04-23T11:59:21;25.40;41.90
29431;DHT22;16404;49.902;10.074;2023-04-23T12:02:05;25.30;42.00
29431;DHT22;16404;49.902;10.074;2023-04-23T12:04:50;25.30;42.10
29431;DHT22;16404;49.902;10.074;2023-04-23T12:07:34;25.30;41.80
29431;DHT22;16404;49.902;10.074;2023-04-23T12:10:19;25.30;41.70
29431;DHT22;16404;49.902;10.074;2023-04-23T12:13:04;25.30;41.60
29431;DHT22;16404;49.902;10.074;2023-04-23T12:15:54;25.40;41.50
29431;DHT22;16404;49.902;10.074;2023-04-23T12:18:40;25.40;41.30
29431;DHT22;16404;49.902;10.074;2023-04-23T12:21:25;25.40;41.10
29431;DHT22;16404;49.902;10.074;2023-04-23T12:24:11;25.50;40.90
29431;DHT22;16404;49.902;10.074;2023-04-23T12:26:56;25.20;40.60
29431;DHT22;16404;49.902;10.074;2023-04-23T12:29:41;25.10;40.30
29431;DHT22;16404;49.902;10.074;2023-04-23T12:32:25;25.00;40.20
29431;DHT22;16404;49.902;10.074;2023-04-23T12:35:10;24.90;40.20
29431;DHT22;16404;49.902;10.074;2023-04-23T12:37:55;25.10;40.20
29431;DHT22;16404;49.902;10.074;2023-04-23T12:40:41;25.20;40.00
29431;DHT22;16404;49.902;10.074;2023-04-23T12:43:25;25.30;40.00
29431;DHT22;16404;49.902;10.074;2023-04-23T12:46:09;25.40;39.80
29431;DHT22;16404;49.902;10.074;2023-04-23T12:48:54;25.50;39.60
29431;DHT22;16404;49.902;10.074;2023-04-23T12:51:38;25.60;39.40
29431;DHT22;16404;49.902;10.074;2023-04-23T12:54:25;25.70;39.40
29431;DHT22;16404;49.902;10.074;2023-04-23T12:57:10;25.70;39.30
29431;DHT22;16404;49.902;10.074;2023-04-23T12:59:55;25.60;39.10
29431;DHT22;16404;49.902;10.074;2023-04-23T13:02:39;25.40;38.70
29431;DHT22;16404;49.902;10.074;2023-04-23T13:05:23;25.30;38.60
29431;DHT22;16404;49.902;10.074;2023-04-23T13:08:08;25.40;38.70
29431;DHT22;16404;49.902;10.074;2023-04-23T13:10:52;25.50;38.40
29431;DHT22;16404;49.902;10.074;2023-04-23T13:13:36;25.50;38.00
29431;DHT22;16404;49.902;10.074;2023-04-23T13:16:20;25.60;38.00
29431;DHT22;16404;49.902;10.074;2023-04-23T13:19:05;25.70;37.80
29431;DHT22;16404;49.902;10.074;2023-04-23T13:21:49;25.60;37.50
29431;DHT22;16404;49.902;10.074;2023-04-23T13:24:33;25.60;37.50
29431;DHT22;16404;49.902;10.074;2023-04-23T13:27:17;25.60;37.50
29431;DHT22;16404;49.902;10.074;2023-04-23T13:30:02;25.70;37.50
29431;DHT22;16404;49.902;10.074;2023-04-23T13:32:46;25.60;37.50
29431;DHT22;16404;49.902;10.074;2023-04-23T13:35:30;25.60;37.60
29431;DHT22;16404;49.902;10.074;2023-04-23T13:38:15;25.50;37.60
29431;DHT22;16404;49.902;10.074;2023-04-23T13:40:59;25.40;37.70
29431;DHT22;16404;49.902;10.074;2023-04-23T13:43:43;25.40;37.80
29431;DHT22;16404;49.902;10.074;2023-04-23T13:46:28;25.40;37.80
29431;DHT22;16404;49.902;10.074;2023-04-23T13:49:12;25.40;37.80
29431;DHT22;16404;49.902;10.074;2023-04-23T13:51:57;25.40;37.80
29431;DHT22;16404;49.902;10.074;2023-04-23T13:54:44;25.50;37.80
29431;DHT22;16404;49.902;10.074;2023-04-23T13:57:31;25.50;37.80
29431;DHT22;16404;49.902;10.074;2023-04-23T14:00:15;25.50;37.70
29431;DHT22;16404;49.902;10.074;2023-04-23T14:02:59;25.40;37.70
29431;DHT22;16404;49.902;10.074;2023-04-23T14:05:44;25.30;37.80
29431;DHT22;16404;49.902;10.074;2023-04-23T14:08:28;25.20;37.90
29431;DHT22;16404;49.902;10.074;2023-04-23T14:11:12;25.20;37.90
29431;DHT22;16404;49.902;10.074;2023-04-23T14:13:56;25.30;38.00
29431;DHT22;16404;49.902;10.074;2023-04-23T14:16:41;25.30;38.00
29431;DHT22;16404;49.902;10.074;2023-04-23T14:19:25;25.20;37.90
29431;DHT22;16404;49.902;10.074;2023-04-23T14:22:09;25.20;37.90
29431;DHT22;16404;49.902;10.074;2023-04-23T14:28:02;25.10;38.20
29431;DHT22;16404;49.902;10.074;2023-04-23T14:30:54;25.00;38.10
29431;DHT22;16404;49.902;10.074;2023-04-23T14:33:39;24.90;38.20
29431;DHT22;16404;49.902;10.074;2023-04-23T14:36:23;24.90;38.20
29431;DHT22;16404;49.902;10.074;2023-04-23T14:39:08;24.90;38.20
29431;DHT22;16404;49.902;10.074;2023-04-23T14:41:52;24.90;38.20
29431;DHT22;16404;49.902;10.074;2023-04-23T14:44:36;24.90;38.20
29431;DHT22;16404;49.902;10.074;2023-04-23T14:47:21;24.80;38.30
29431;DHT22;16404;49.902;10.074;2023-04-23T14:50:05;24.90;38.30
29431;DHT22;16404;49.902;10.074;2023-04-23T14:52:50;24.90;38.30
29431;DHT22;16404;49.902;10.074;2023-04-23T14:55:35;24.90;38.10
29431;DHT22;16404;49.902;10.074;2023-04-23T14:58:19;24.80;38.00
29431;DHT22;16404;49.902;10.074;2023-04-23T15:01:03;24.70;37.80
29431;DHT22;16404;49.902;10.074;2023-04-23T15:03:47;24.70;37.90
29431;DHT22;16404;49.902;10.074;2023-04-23T15:06:32;24.80;37.80
29431;DHT22;16404;49.902;10.074;2023-04-23T15:09:16;24.90;37.70
29431;DHT22;16404;49.902;10.074;2023-04-23T15:12:00;24.80;37.60
29431;DHT22;16404;49.902;10.074;2023-04-23T15:14:46;24.90;37.60
29431;DHT22;16404;49.902;10.074;2023-04-23T15:17:31;24.90;37.60
29431;DHT22;16404;49.902;10.074;2023-04-23T15:20:16;24.70;37.60
29431;DHT22;16404;49.902;10.074;2023-04-23T15:23:00;24.60;37.70
29431;DHT22;16404;49.902;10.074;2023-04-23T15:25:45;24.60;37.70
29431;DHT22;16404;49.902;10.074;2023-04-23T15:28:29;24.70;37.70
29431;DHT22;16404;49.902;10.074;2023-04-23T15:31:13;24.70;37.70
29431;DHT22;16404;49.902;10.074;2023-04-23T15:33:58;24.60;37.70
29431;DHT22;16404;49.902;10.074;2023-04-23T15:36:42;24.60;37.70
29431;DHT22;16404;49.902;10.074;2023-04-23T15:39:26;24.50;37.60
29431;DHT22;16404;49.902;10.074;2023-04-23T15:42:12;24.40;37.70
29431;DHT22;16404;49.902;10.074;2023-04-23T15:44:58;24.40;37.80
29431;DHT22;16404;49.902;10.074;2023-04-23T15:47:42;24.30;37.70
29431;DHT22;16404;49.902;10.074;2023-04-23T15:50:26;24.20;37.70
29431;DHT22;16404;49.902;10.074;2023-04-23T15:53:10;24.10;37.80
29431;DHT22;16404;49.902;10.074;2023-04-23T15:55:55;24.10;37.70
29431;DHT22;16404;49.902;10.074;2023-04-23T15:58:39;24.10;37.70
29431;DHT22;16404;49.902;10.074;2023-04-23T16:01:23;24.10;37.70
29431;DHT22;16404;49.902;10.074;2023-04-23T16:04:07;24.20;37.60
29431;DHT22;16404;49.902;10.074;2023-04-23T16:06:52;24.10;37.60
29431;DHT22;16404;49.902;10.074;2023-04-23T16:09:36;24.10;37.50
29431;DHT22;16404;49.902;10.074;2023-04-23T16:12:20;24.10;37.60
29431;DHT22;16404;49.902;10.074;2023-04-23T16:15:04;24.10;37.70
29431;DHT22;16404;49.902;10.074;2023-04-23T16:17:49;24.10;37.70
29431;DHT22;16404;49.902;10.074;2023-04-23T16:20:35;24.10;37.70
29431;DHT22;16404;49.902;10.074;2023-04-23T16:23:20;24.00;37.70
29431;DHT22;16404;49.902;10.074;2023-04-23T16:26:04;24.00;37.70
29431;DHT22;16404;49.902;10.074;2023-04-23T16:28:51;24.00;37.70
29431;DHT22;16404;49.902;10.074;2023-04-23T16:31:35;24.10;37.70
29431;DHT22;16404;49.902;10.074;2023-04-23T16:34:20;24.10;37.70
29431;DHT22;16404;49.902;10.074;2023-04-23T16:37:04;24.10;37.80
29431;DHT22;16404;49.902;10.074;2023-04-23T16:39:49;24.10;37.70
29431;DHT22;16404;49.902;10.074;2023-04-23T16:42:33;24.10;37.70
29431;DHT22;16404;49.902;10.074;2023-04-23T16:45:17;24.20;37.80
29431;DHT22;16404;49.902;10.074;2023-04-23T16:51:16;24.10;37.90
29431;DHT22;16404;49.902;10.074;2023-04-23T16:54:01;24.10;37.90
29431;DHT22;16404;49.902;10.074;2023-04-23T16:57:29;24.10;37.90
29431;DHT22;16404;49.902;10.074;2023-04-23T17:00:13;24.10;37.90
29431;DHT22;16404;49.902;10.074;2023-04-23T17:03:18;24.10;38.00
29431;DHT22;16404;49.902;10.074;2023-04-23T17:06:07;24.10;38.00
29431;DHT22;16404;49.902;10.074;2023-04-23T17:08:53;24.00;38.10
29431;DHT22;16404;49.902;10.074;2023-04-23T17:11:37;24.00;38.10
29431;DHT22;16404;49.902;10.074;2023-04-23T17:14:23;24.00;38.20
29431;DHT22;16404;49.902;10.074;2023-04-23T17:17:07;23.90;38.20
29431;DHT22;16404;49.902;10.074;2023-04-23T17:19:51;23.90;38.30
29431;DHT22;16404;49.902;10.074;2023-04-23T17:22:36;23.90;38.30
29431;DHT22;16404;49.902;10.074;2023-04-23T17:25:20;23.90;38.40